sensor_id;sensor_type;location;lat;lon;timestamp;pressure;altitude;pressure_sealevel;temperature;humidity
22241;BME280;11289;52.524;13.694;2023-05-10T00:01:17;100658.16;;;12.73;48.68
22241;BME280;11289;52.524;13.694;2023-05-10T00:03:43;100663.28;;;12.71;48.77
22241;BME280;11289;52.524;13.694;2023-05-10T00:06:09;100669.66;;;12.71;49.01
22241;BME280;11289;52.524;13.694;2023-05-10T00:08:35;100652.94;;;12.59;49.29
22241;BME280;11289;52.524;13.694;2023-05-10T00:11:01;100663.47;;;12.53;49.36
22241;BME280;11289;52.524;13.694;2023-05-10T00:13:27;100656.00;;;12.45;49.56
22241;BME280;11289;52.524;13.694;2023-05-10T00:15:53;100680.38;;;12.48;50.35
22241;BME280;11289;52.524;13.694;2023-05-10T00:18:19;100651.41;;;12.28;50.38
22241;BME280;11289;52.524;13.694;2023-05-10T00:20:45;100649.13;;;12.30;50.53
22241;BME280;11289;52.524;13.694;2023-05-10T00:23:12;100661.47;;;12.42;50.69
22241;BME280;11289;52.524;13.694;2023-05-10T00:25:38;100637.72;;;12.23;50.54
22241;BME280;11289;52.524;13.694;2023-05-10T00:28:04;100647.34;;;12.26;50.82
22241;BME280;11289;52.524;13.694;2023-05-10T00:30:30;100629.28;;;12.11;51.28
22241;BME280;11289;52.524;13.694;2023-05-10T00:32:56;100634.94;;;12.02;51.17
22241;BME280;11289;52.524;13.694;2023-05-10T00:35:22;100629.19;;;12.07;51.15
22241;BME280;11289;52.524;13.694;2023-05-10T00:37:48;100617.09;;;12.03;51.17
22241;BME280;11289;52.524;13.694;2023-05-10T00:40:14;100640.09;;;12.12;51.63
22241;BME280;11289;52.524;13.694;2023-05-10T00:42:40;100627.00;;;12.13;51.47
22241;BME280;11289;52.524;13.694;2023-05-10T00:45:07;100605.00;;;11.99;51.63
22241;BME280;11289;52.524;13.694;2023-05-10T00:47:33;100610.72;;;12.02;51.47
22241;BME280;11289;52.524;13.694;2023-05-10T00:49:59;100623.38;;;12.12;51.76
22241;BME280;11289;52.524;13.694;2023-05-10T00:52:27;100621.28;;;12.09;51.56
22241;BME280;11289;52.524;13.694;2023-05-10T00:54:54;100609.28;;;11.96;51.88
22241;BME280;11289;52.524;13.694;2023-05-10T00:57:24;100613.06;;;11.92;52.04
22241;BME280;11289;52.524;13.694;2023-05-10T00:59:50;100611.59;;;11.94;52.12
22241;BME280;11289;52.524;13.694;2023-05-10T01:02:17;100605.75;;;11.87;52.09
22241;BME280;11289;52.524;13.694;2023-05-10T01:04:43;100610.84;;;11.85;52.30
22241;BME280;11289;52.524;13.694;2023-05-10T01:07:10;100611.31;;;11.87;52.59
22241;BME280;11289;52.524;13.694;2023-05-10T01:09:36;100588.84;;;11.71;52.52
22241;BME280;11289;52.524;13.694;2023-05-10T01:12:03;100602.81;;;11.83;52.66
22241;BME280;11289;52.524;13.694;2023-05-10T01:14:33;100596.31;;;11.79;52.56
22241;BME280;11289;52.524;13.694;2023-05-10T01:17:00;100585.59;;;11.69;53.11
22241;BME280;11289;52.524;13.694;2023-05-10T01:19:28;100593.94;;;11.69;53.11
22241;BME280;11289;52.524;13.694;2023-05-10T01:33:27;100568.50;;;11.37;53.73
22241;BME280;11289;52.524;13.694;2023-05-10T01:38:57;100569.78;;;11.40;53.70
22241;BME280;11289;52.524;13.694;2023-05-10T01:44:16;100578.09;;;11.40;53.84
22241;BME280;11289;52.524;13.694;2023-05-10T01:46:48;100571.28;;;11.37;53.78
22241;BME280;11289;52.524;13.694;2023-05-10T01:49:38;100574.19;;;11.41;53.77
22241;BME280;11289;52.524;13.694;2023-05-10T01:52:12;100577.59;;;11.46;54.12
22241;BME280;11289;52.524;13.694;2023-05-10T01:54:43;100582.06;;;11.39;53.68
22241;BME280;11289;52.524;13.694;2023-05-10T01:57:10;100575.94;;;11.24;54.32
22241;BME280;11289;52.524;13.694;2023-05-10T01:59:40;100572.53;;;11.19;54.27
22241;BME280;11289;52.524;13.694;2023-05-10T02:02:08;100569.25;;;11.17;54.26
22241;BME280;11289;52.524;13.694;2023-05-10T02:04:39;100546.47;;;11.02;54.11
22241;BME280;11289;52.524;13.694;2023-05-10T02:07:06;100551.16;;;11.10;54.11
22241;BME280;11289;52.524;13.694;2023-05-10T02:09:34;100574.47;;;11.18;54.18
22241;BME280;11289;52.524;13.694;2023-05-10T02:12:02;100572.03;;;11.17;54.42
22241;BME280;11289;52.524;13.694;2023-05-10T02:14:32;100576.44;;;11.18;54.25
22241;BME280;11289;52.524;13.694;2023-05-10T02:17:04;100577.94;;;11.15;54.15
22241;BME280;11289;52.524;13.694;2023-05-10T02:19:32;100567.03;;;11.10;54.19
22241;BME280;11289;52.524;13.694;2023-05-10T02:21:59;100550.25;;;10.97;54.36
22241;BME280;11289;52.524;13.694;2023-05-10T02:24:27;100566.41;;;11.04;54.29
22241;BME280;11289;52.524;13.694;2023-05-10T02:26:54;100560.03;;;11.04;54.43
22241;BME280;11289;52.524;13.694;2023-05-10T02:29:23;100572.75;;;11.05;54.35
22241;BME280;11289;52.524;13.694;2023-05-10T02:31:54;100557.16;;;10.91;54.40
22241;BME280;11289;52.524;13.694;2023-05-10T02:34:22;100567.59;;;10.94;54.56
22241;BME280;11289;52.524;13.694;2023-05-10T02:36:50;100548.06;;;10.82;54.66
22241;BME280;11289;52.524;13.694;2023-05-10T02:39:21;100572.34;;;10.94;54.87
22241;BME280;11289;52.524;13.694;2023-05-10T02:41:49;100548.88;;;10.83;54.54
22241;BME280;11289;52.524;13.694;2023-05-10T02:44:20;100565.94;;;10.93;54.43
22241;BME280;11289;52.524;13.694;2023-05-10T02:46:47;100549.66;;;10.83;54.64
22241;BME280;11289;52.524;13.694;2023-05-10T02:49:14;100539.47;;;10.66;54.81
22241;BME280;11289;52.524;13.694;2023-05-10T02:51:43;100527.72;;;10.60;54.90
22241;BME280;11289;52.524;13.694;2023-05-10T02:54:19;100557.53;;;10.81;54.83
22241;BME280;11289;52.524;13.694;2023-05-10T02:56:53;100564.72;;;10.82;54.79
22241;BME280;11289;52.524;13.694;2023-05-10T02:59:23;100518.94;;;10.50;54.74
22241;BME280;11289;52.524;13.694;2023-05-10T03:01:49;100559.84;;;10.79;54.75
22241;BME280;11289;52.524;13.694;2023-05-10T03:04:15;100547.81;;;10.66;54.72
22241;BME280;11289;52.524;13.694;2023-05-10T03:06:41;100552.53;;;10.66;54.94
22241;BME280;11289;52.524;13.694;2023-05-10T03:09:09;100532.78;;;10.58;54.73
22241;BME280;11289;52.524;13.694;2023-05-10T03:11:49;100554.44;;;10.74;54.86
22241;BME280;11289;52.524;13.694;2023-05-10T03:17:06;100517.47;;;10.52;55.08
22241;BME280;11289;52.524;13.694;2023-05-10T03:22:10;100537.56;;;10.49;55.13
22241;BME280;11289;52.524;13.694;2023-05-10T03:24:39;100557.44;;;10.60;55.35
22241;BME280;11289;52.524;13.694;2023-05-10T03:27:07;100550.78;;;10.52;55.23
22241;BME280;11289;52.524;13.694;2023-05-10T03:29:33;100547.88;;;10.49;55.60
22241;BME280;11289;52.524;13.694;2023-05-10T03:32:00;100548.38;;;10.42;55.71
22241;BME280;11289;52.524;13.694;2023-05-10T03:34:26;100547.56;;;10.41;56.01
22241;BME280;11289;52.524;13.694;2023-05-10T03:36:52;100558.63;;;10.50;55.86
22241;BME280;11289;52.524;13.694;2023-05-10T03:39:18;100554.38;;;10.44;55.76
22241;BME280;11289;52.524;13.694;2023-05-10T03:41:44;100540.19;;;10.45;55.72
22241;BME280;11289;52.524;13.694;2023-05-10T03:44:10;100549.16;;;10.42;55.76
22241;BME280;11289;52.524;13.694;2023-05-10T03:46:36;100552.63;;;10.39;55.61
22241;BME280;11289;52.524;13.694;2023-05-10T03:49:02;100548.38;;;10.42;55.84
22241;BME280;11289;52.524;13.694;2023-05-10T03:51:28;100540.84;;;10.42;55.63
22241;BME280;11289;52.524;13.694;2023-05-10T03:53:54;100540.38;;;10.40;55.76
22241;BME280;11289;52.524;13.694;2023-05-10T03:56:21;100545.91;;;10.40;55.76
22241;BME280;11289;52.524;13.694;2023-05-10T03:58:47;100539.91;;;10.38;56.04
22241;BME280;11289;52.524;13.694;2023-05-10T04:01:13;100553.09;;;10.50;55.81
22241;BME280;11289;52.524;13.694;2023-05-10T04:03:39;100556.84;;;10.45;56.15
22241;BME280;11289;52.524;13.694;2023-05-10T04:06:05;100541.50;;;10.39;55.76
22241;BME280;11289;52.524;13.694;2023-05-10T04:08:31;100538.59;;;10.36;55.95
22241;BME280;11289;52.524;13.694;2023-05-10T04:11:10;100543.47;;;10.39;55.91
22241;BME280;11289;52.524;13.694;2023-05-10T04:13:37;100541.03;;;10.37;56.23
22241;BME280;11289;52.524;13.694;2023-05-10T04:16:04;100518.66;;;10.25;55.98
22241;BME280;11289;52.524;13.694;2023-05-10T04:18:30;100541.03;;;10.37;56.06
22241;BME280;11289;52.524;13.694;2023-05-10T04:20:57;100540.88;;;10.34;56.10
22241;BME280;11289;52.524;13.694;2023-05-10T04:23:23;100542.19;;;10.36;56.01
22241;BME280;11289;52.524;13.694;2023-05-10T04:25:49;100537.13;;;10.38;55.85
22241;BME280;11289;52.524;13.694;2023-05-10T04:28:15;100527.50;;;10.36;55.96
22241;BME280;11289;52.524;13.694;2023-05-10T04:30:41;100529.59;;;10.39;56.12
22241;BME280;11289;52.524;13.694;2023-05-10T04:33:07;100530.41;;;10.39;55.65
22241;BME280;11289;52.524;13.694;2023-05-10T04:35:33;100529.06;;;10.45;55.99
22241;BME280;11289;52.524;13.694;2023-05-10T04:37:59;100538.22;;;10.46;55.64
22241;BME280;11289;52.524;13.694;2023-05-10T04:40:25;100534.78;;;10.49;55.61
22241;BME280;11289;52.524;13.694;2023-05-10T04:42:51;100537.41;;;10.54;55.64
22241;BME280;11289;52.524;13.694;2023-05-10T04:45:17;100526.59;;;10.53;55.54
22241;BME280;11289;52.524;13.694;2023-05-10T04:47:43;100526.44;;;10.58;55.44
22241;BME280;11289;52.524;13.694;2023-05-10T04:50:09;100542.59;;;10.65;55.53
22241;BME280;11289;52.524;13.694;2023-05-10T04:52:35;100530.16;;;10.62;55.57
22241;BME280;11289;52.524;13.694;2023-05-10T04:55:02;100543.53;;;10.69;55.18
22241;BME280;11289;52.524;13.694;2023-05-10T04:57:28;100532.41;;;10.69;55.06
22241;BME280;11289;52.524;13.694;2023-05-10T04:59:54;100529.47;;;10.74;54.92
22241;BME280;11289;52.524;13.694;2023-05-10T05:02:20;100530.91;;;10.80;55.23
22241;BME280;11289;52.524;13.694;2023-05-10T05:04:46;100539.84;;;10.86;55.19
22241;BME280;11289;52.524;13.694;2023-05-10T05:07:12;100533.63;;;10.89;55.37
22241;BME280;11289;52.524;13.694;2023-05-10T05:09:38;100531.81;;;10.93;55.18
22241;BME280;11289;52.524;13.694;2023-05-10T05:12:04;100538.00;;;10.98;55.03
22241;BME280;11289;52.524;13.694;2023-05-10T05:14:30;100536.19;;;11.03;55.45
22241;BME280;11289;52.524;13.694;2023-05-10T05:16:56;100537.94;;;11.07;54.81
22241;BME280;11289;52.524;13.694;2023-05-10T05:19:22;100541.97;;;11.19;55.14
22241;BME280;11289;52.524;13.694;2023-05-10T05:21:48;100536.06;;;11.20;55.00
22241;BME280;11289;52.524;13.694;2023-05-10T05:24:14;100544.34;;;11.29;54.79
22241;BME280;11289;52.524;13.694;2023-05-10T05:26:40;100528.63;;;11.33;54.63
22241;BME280;11289;52.524;13.694;2023-05-10T05:29:06;100526.31;;;11.35;54.38
22241;BME280;11289;52.524;13.694;2023-05-10T05:31:32;100536.91;;;11.42;54.50
22241;BME280;11289;52.524;13.694;2023-05-10T05:33:58;100518.88;;;11.48;54.70
22241;BME280;11289;52.524;13.694;2023-05-10T05:36:24;100526.19;;;11.53;54.50
22241;BME280;11289;52.524;13.694;2023-05-10T05:38:50;100523.22;;;11.58;54.32
22241;BME280;11289;52.524;13.694;2023-05-10T05:41:16;100532.44;;;11.71;54.15
22241;BME280;11289;52.524;13.694;2023-05-10T05:43:42;100534.44;;;11.82;54.19
22241;BME280;11289;52.524;13.694;2023-05-10T05:46:08;100519.00;;;11.94;53.48
22241;BME280;11289;52.524;13.694;2023-05-10T05:48:34;100527.88;;;12.21;53.44
22241;BME280;11289;52.524;13.694;2023-05-10T05:51:00;100523.16;;;12.46;52.97
22241;BME280;11289;52.524;13.694;2023-05-10T05:53:27;100515.53;;;12.67;52.32
22241;BME280;11289;52.524;13.694;2023-05-10T05:55:57;100509.50;;;12.90;51.49
22241;BME280;11289;52.524;13.694;2023-05-10T05:58:24;100519.91;;;13.18;50.99
22241;BME280;11289;52.524;13.694;2023-05-10T06:00:51;100521.19;;;13.45;50.76
22241;BME280;11289;52.524;13.694;2023-05-10T06:03:20;100503.88;;;13.68;50.01
22241;BME280;11289;52.524;13.694;2023-05-10T06:05:47;100517.13;;;13.99;48.83
22241;BME280;11289;52.524;13.694;2023-05-10T06:08:13;100531.88;;;14.28;48.42
22241;BME280;11289;52.524;13.694;2023-05-10T06:10:39;100523.78;;;14.55;47.83
22241;BME280;11289;52.524;13.694;2023-05-10T06:13:05;100529.50;;;14.74;47.10
22241;BME280;11289;52.524;13.694;2023-05-10T06:15:31;100520.00;;;14.95;46.59
22241;BME280;11289;52.524;13.694;2023-05-10T06:17:58;100514.19;;;15.20;46.44
22241;BME280;11289;52.524;13.694;2023-05-10T06:20:24;100522.94;;;15.38;46.16
22241;BME280;11289;52.524;13.694;2023-05-10T06:22:50;100523.50;;;15.63;45.73
22241;BME280;11289;52.524;13.694;2023-05-10T06:25:16;100517.94;;;15.82;45.11
22241;BME280;11289;52.524;13.694;2023-05-10T06:27:44;100528.66;;;16.00;44.48
22241;BME280;11289;52.524;13.694;2023-05-10T06:30:10;100521.72;;;16.13;44.73
22241;BME280;11289;52.524;13.694;2023-05-10T06:32:37;100503.63;;;16.30;44.46
22241;BME280;11289;52.524;13.694;2023-05-10T06:35:03;100508.13;;;16.58;44.15
22241;BME280;11289;52.524;13.694;2023-05-10T06:37:29;100526.69;;;16.66;42.97
22241;BME280;11289;52.524;13.694;2023-05-10T06:39:55;100509.22;;;16.77;43.38
22241;BME280;11289;52.524;13.694;2023-05-10T06:42:21;100503.91;;;16.95;43.38
22241;BME280;11289;52.524;13.694;2023-05-10T06:44:47;100508.25;;;17.15;42.78
22241;BME280;11289;52.524;13.694;2023-05-10T06:47:13;100509.34;;;17.37;42.59
22241;BME280;11289;52.524;13.694;2023-05-10T06:49:38;100515.06;;;17.45;40.95
22241;BME280;11289;52.524;13.694;2023-05-10T06:52:05;100511.97;;;17.53;41.58
22241;BME280;11289;52.524;13.694;2023-05-10T06:54:31;100505.72;;;17.67;41.58
22241;BME280;11289;52.524;13.694;2023-05-10T06:56:57;100511.47;;;17.78;40.60
22241;BME280;11289;52.524;13.694;2023-05-10T06:59:23;100516.28;;;17.78;41.24
22241;BME280;11289;52.524;13.694;2023-05-10T07:01:49;100488.31;;;17.88;41.33
22241;BME280;11289;52.524;13.694;2023-05-10T07:04:15;100507.41;;;18.06;40.82
22241;BME280;11289;52.524;13.694;2023-05-10T07:06:41;100505.97;;;18.23;40.44
22241;BME280;11289;52.524;13.694;2023-05-10T07:09:07;100497.63;;;18.30;40.39
22241;BME280;11289;52.524;13.694;2023-05-10T07:11:33;100503.97;;;18.23;40.18
22241;BME280;11289;52.524;13.694;2023-05-10T07:13:59;100508.16;;;18.40;40.02
22241;BME280;11289;52.524;13.694;2023-05-10T07:16:25;100502.03;;;18.31;40.22
22241;BME280;11289;52.524;13.694;2023-05-10T07:18:51;100503.31;;;18.37;39.80
22241;BME280;11289;52.524;13.694;2023-05-10T07:21:18;100491.28;;;18.40;39.67
22241;BME280;11289;52.524;13.694;2023-05-10T07:23:44;100515.63;;;18.70;39.89
22241;BME280;11289;52.524;13.694;2023-05-10T07:26:10;100515.47;;;18.97;39.24
22241;BME280;11289;52.524;13.694;2023-05-10T07:28:37;100505.50;;;19.07;39.04
22241;BME280;11289;52.524;13.694;2023-05-10T07:31:03;100511.59;;;19.16;38.35
22241;BME280;11289;52.524;13.694;2023-05-10T07:33:29;100516.06;;;19.24;38.84
22241;BME280;11289;52.524;13.694;2023-05-10T07:35:55;100508.91;;;19.38;37.42
22241;BME280;11289;52.524;13.694;2023-05-10T07:38:21;100503.75;;;19.54;37.72
22241;BME280;11289;52.524;13.694;2023-05-10T07:40:47;100511.44;;;19.61;37.83
22241;BME280;11289;52.524;13.694;2023-05-10T07:43:13;100507.03;;;19.67;38.18
22241;BME280;11289;52.524;13.694;2023-05-10T07:45:40;100503.50;;;19.92;38.23
22241;BME280;11289;52.524;13.694;2023-05-10T07:48:05;100509.22;;;20.17;37.89
22241;BME280;11289;52.524;13.694;2023-05-10T07:50:31;100501.59;;;20.50;37.37
22241;BME280;11289;52.524;13.694;2023-05-10T07:52:57;100492.38;;;20.89;37.62
22241;BME280;11289;52.524;13.694;2023-05-10T07:55:23;100504.88;;;20.92;35.65
22241;BME280;11289;52.524;13.694;2023-05-10T07:57:49;100497.19;;;20.92;36.36
22241;BME280;11289;52.524;13.694;2023-05-10T08:00:19;100491.53;;;21.07;35.73
22241;BME280;11289;52.524;13.694;2023-05-10T08:02:46;100509.25;;;21.00;34.95
22241;BME280;11289;52.524;13.694;2023-05-10T08:05:12;100492.34;;;21.11;35.49
22241;BME280;11289;52.524;13.694;2023-05-10T08:07:39;100491.47;;;21.35;35.81
22241;BME280;11289;52.524;13.694;2023-05-10T08:10:05;100482.59;;;21.37;35.21
22241;BME280;11289;52.524;13.694;2023-05-10T08:12:31;100490.59;;;21.56;34.75
22241;BME280;11289;52.524;13.694;2023-05-10T08:14:57;100492.22;;;21.61;34.23
22241;BME280;11289;52.524;13.694;2023-05-10T08:17:23;100481.63;;;21.80;34.57
22241;BME280;11289;52.524;13.694;2023-05-10T08:19:49;100490.84;;;21.91;35.12
22241;BME280;11289;52.524;13.694;2023-05-10T08:22:15;100492.78;;;22.05;33.99
22241;BME280;11289;52.524;13.694;2023-05-10T08:24:42;100495.63;;;22.05;34.27
22241;BME280;11289;52.524;13.694;2023-05-10T08:27:08;100497.19;;;22.09;33.15
22241;BME280;11289;52.524;13.694;2023-05-10T08:29:34;100481.59;;;21.83;33.85
22241;BME280;11289;52.524;13.694;2023-05-10T08:32:00;100485.72;;;21.71;34.12
22241;BME280;11289;52.524;13.694;2023-05-10T08:34:27;100484.03;;;21.85;34.14
22241;BME280;11289;52.524;13.694;2023-05-10T08:36:53;100480.66;;;22.04;34.59
22241;BME280;11289;52.524;13.694;2023-05-10T08:39:19;100484.66;;;22.18;33.95
22241;BME280;11289;52.524;13.694;2023-05-10T08:41:46;100493.81;;;22.40;33.84
22241;BME280;11289;52.524;13.694;2023-05-10T08:44:13;100491.47;;;22.76;34.41
22241;BME280;11289;52.524;13.694;2023-05-10T08:46:41;100484.84;;;22.94;33.68
22241;BME280;11289;52.524;13.694;2023-05-10T08:49:13;100483.81;;;23.19;32.60
22241;BME280;11289;52.524;13.694;2023-05-10T08:51:40;100487.63;;;23.39;31.61
22241;BME280;11289;52.524;13.694;2023-05-10T08:54:09;100476.25;;;23.43;31.56
22241;BME280;11289;52.524;13.694;2023-05-10T08:56:36;100470.88;;;23.52;31.33
22241;BME280;11289;52.524;13.694;2023-05-10T08:59:02;100476.97;;;23.51;31.90
22241;BME280;11289;52.524;13.694;2023-05-10T09:01:28;100483.41;;;23.55;31.39
22241;BME280;11289;52.524;13.694;2023-05-10T09:03:56;100484.44;;;23.68;31.08
22241;BME280;11289;52.524;13.694;2023-05-10T09:06:22;100490.06;;;23.72;31.05
22241;BME280;11289;52.524;13.694;2023-05-10T09:08:49;100474.81;;;23.62;31.54
22241;BME280;11289;52.524;13.694;2023-05-10T09:11:15;100474.53;;;23.53;31.09
22241;BME280;11289;52.524;13.694;2023-05-10T09:13:42;100479.91;;;23.74;31.91
22241;BME280;11289;52.524;13.694;2023-05-10T09:16:09;100472.56;;;24.08;30.71
22241;BME280;11289;52.524;13.694;2023-05-10T09:18:35;100476.69;;;24.30;30.90
22241;BME280;11289;52.524;13.694;2023-05-10T09:21:01;100481.69;;;24.50;31.10
22241;BME280;11289;52.524;13.694;2023-05-10T09:23:27;100475.38;;;24.66;30.36
22241;BME280;11289;52.524;13.694;2023-05-10T09:26:07;100485.47;;;24.40;30.40
22241;BME280;11289;52.524;13.694;2023-05-10T09:28:34;100482.78;;;24.56;30.97
22241;BME280;11289;52.524;13.694;2023-05-10T09:31:00;100487.38;;;24.74;30.43
22241;BME280;11289;52.524;13.694;2023-05-10T09:33:26;100485.28;;;24.78;29.27
22241;BME280;11289;52.524;13.694;2023-05-10T09:35:52;100477.44;;;24.62;30.84
22241;BME280;11289;52.524;13.694;2023-05-10T09:38:18;100486.94;;;24.75;30.74
22241;BME280;11289;52.524;13.694;2023-05-10T09:40:51;100489.28;;;25.04;30.06
22241;BME280;11289;52.524;13.694;2023-05-10T09:43:20;100507.41;;;25.10;29.15
22241;BME280;11289;52.524;13.694;2023-05-10T09:45:48;100504.50;;;25.14;29.63
22241;BME280;11289;52.524;13.694;2023-05-10T09:48:15;100484.81;;;25.03;28.85
22241;BME280;11289;52.524;13.694;2023-05-10T09:50:41;100481.56;;;25.05;29.95
22241;BME280;11289;52.524;13.694;2023-05-10T09:53:07;100487.31;;;25.21;30.25
22241;BME280;11289;52.524;13.694;2023-05-10T09:55:43;100479.38;;;25.56;29.50
22241;BME280;11289;52.524;13.694;2023-05-10T09:58:15;100483.25;;;26.02;29.60
22241;BME280;11289;52.524;13.694;2023-05-10T10:00:46;100478.97;;;25.74;29.02
22241;BME280;11289;52.524;13.694;2023-05-10T10:03:19;100491.84;;;25.99;27.92
22241;BME280;11289;52.524;13.694;2023-05-10T10:05:46;100480.00;;;26.20;28.46
22241;BME280;11289;52.524;13.694;2023-05-10T10:08:14;100480.88;;;26.34;27.64
22241;BME280;11289;52.524;13.694;2023-05-10T10:10:41;100478.28;;;26.06;28.42
22241;BME280;11289;52.524;13.694;2023-05-10T10:13:07;100488.19;;;25.98;27.48
22241;BME280;11289;52.524;13.694;2023-05-10T10:15:34;100478.84;;;25.98;28.39
22241;BME280;11289;52.524;13.694;2023-05-10T10:18:00;100477.25;;;26.33;28.32
22241;BME280;11289;52.524;13.694;2023-05-10T10:20:28;100488.19;;;26.68;28.13
22241;BME280;11289;52.524;13.694;2023-05-10T10:22:54;100483.22;;;26.88;27.39
22241;BME280;11289;52.524;13.694;2023-05-10T10:25:21;100476.09;;;26.64;27.36
22241;BME280;11289;52.524;13.694;2023-05-10T10:35:34;100463.09;;;26.63;26.94
22241;BME280;11289;52.524;13.694;2023-05-10T10:38:00;100456.63;;;26.62;27.28
22241;BME280;11289;52.524;13.694;2023-05-10T10:40:28;100459.22;;;26.56;27.84
22241;BME280;11289;52.524;13.694;2023-05-10T10:42:55;100466.41;;;26.94;27.55
22241;BME280;11289;52.524;13.694;2023-05-10T10:45:23;100461.81;;;27.13;25.98
22241;BME280;11289;52.524;13.694;2023-05-10T10:48:05;100471.19;;;26.97;26.38
22241;BME280;11289;52.524;13.694;2023-05-10T10:50:45;100480.78;;;27.03;26.64
22241;BME280;11289;52.524;13.694;2023-05-10T10:53:14;100468.69;;;26.99;26.57
22241;BME280;11289;52.524;13.694;2023-05-10T10:55:46;100484.47;;;26.87;26.03
22241;BME280;11289;52.524;13.694;2023-05-10T10:58:33;100469.44;;;26.37;26.51
22241;BME280;11289;52.524;13.694;2023-05-10T11:01:17;100468.44;;;26.28;26.95
22241;BME280;11289;52.524;13.694;2023-05-10T11:06:31;100467.56;;;26.64;27.16
22241;BME280;11289;52.524;13.694;2023-05-10T11:08:58;100468.78;;;26.96;26.96
22241;BME280;11289;52.524;13.694;2023-05-10T11:11:24;100479.75;;;27.26;26.68
22241;BME280;11289;52.524;13.694;2023-05-10T11:13:51;100464.88;;;27.35;26.31
22241;BME280;11289;52.524;13.694;2023-05-10T11:16:20;100471.44;;;27.61;26.13
22241;BME280;11289;52.524;13.694;2023-05-10T11:19:03;100472.84;;;27.83;26.03
22241;BME280;11289;52.524;13.694;2023-05-10T11:21:30;100467.94;;;27.83;25.73
22241;BME280;11289;52.524;13.694;2023-05-10T11:23:58;100458.38;;;28.03;25.62
22241;BME280;11289;52.524;13.694;2023-05-10T11:26:33;100462.50;;;28.27;25.43
22241;BME280;11289;52.524;13.694;2023-05-10T11:29:00;100465.81;;;28.13;24.74
22241;BME280;11289;52.524;13.694;2023-05-10T11:31:28;100458.84;;;28.14;25.45
22241;BME280;11289;52.524;13.694;2023-05-10T11:33:59;100465.34;;;28.27;25.59
22241;BME280;11289;52.524;13.694;2023-05-10T11:36:32;100466.72;;;28.61;24.89
22241;BME280;11289;52.524;13.694;2023-05-10T11:38:58;100451.97;;;28.50;25.12
22241;BME280;11289;52.524;13.694;2023-05-10T11:41:25;100463.84;;;28.36;25.53
22241;BME280;11289;52.524;13.694;2023-05-10T11:43:54;100458.25;;;28.45;25.70
22241;BME280;11289;52.524;13.694;2023-05-10T11:46:22;100458.47;;;28.63;25.18
22241;BME280;11289;52.524;13.694;2023-05-10T11:48:50;100463.25;;;28.66;25.10
22241;BME280;11289;52.524;13.694;2023-05-10T11:51:21;100458.06;;;28.39;25.25
22241;BME280;11289;52.524;13.694;2023-05-10T11:53:49;100450.28;;;28.40;25.26
22241;BME280;11289;52.524;13.694;2023-05-10T11:56:16;100445.56;;;28.72;25.30
22241;BME280;11289;52.524;13.694;2023-05-10T11:58:42;100462.34;;;28.70;24.60
22241;BME280;11289;52.524;13.694;2023-05-10T12:01:08;100463.25;;;28.66;25.15
22241;BME280;11289;52.524;13.694;2023-05-10T12:03:36;100447.88;;;28.51;24.60
22241;BME280;11289;52.524;13.694;2023-05-10T12:06:03;100469.09;;;28.76;24.58
22241;BME280;11289;52.524;13.694;2023-05-10T12:08:30;100466.09;;;28.79;24.16
22241;BME280;11289;52.524;13.694;2023-05-10T12:11:07;100463.13;;;28.83;23.93
22241;BME280;11289;52.524;13.694;2023-05-10T12:13:41;100456.28;;;28.55;24.56
22241;BME280;11289;52.524;13.694;2023-05-10T12:16:22;100456.75;;;28.53;24.45
22241;BME280;11289;52.524;13.694;2023-05-10T12:18:52;100476.19;;;28.71;24.05
22241;BME280;11289;52.524;13.694;2023-05-10T12:21:20;100467.41;;;28.40;24.58
22241;BME280;11289;52.524;13.694;2023-05-10T12:23:48;100451.75;;;28.19;24.29
22241;BME280;11289;52.524;13.694;2023-05-10T12:26:15;100469.53;;;27.84;25.27
22241;BME280;11289;52.524;13.694;2023-05-10T12:28:41;100473.34;;;28.07;25.40
22241;BME280;11289;52.524;13.694;2023-05-10T12:31:07;100465.78;;;28.52;24.68
22241;BME280;11289;52.524;13.694;2023-05-10T12:33:38;100461.31;;;28.51;23.85
22241;BME280;11289;52.524;13.694;2023-05-10T12:36:05;100465.56;;;28.33;24.07
22241;BME280;11289;52.524;13.694;2023-05-10T12:38:34;100461.81;;;27.98;24.92
22241;BME280;11289;52.524;13.694;2023-05-10T12:41:01;100472.38;;;27.97;24.84
22241;BME280;11289;52.524;13.694;2023-05-10T12:43:28;100455.75;;;27.83;24.11
22241;BME280;11289;52.524;13.694;2023-05-10T12:45:54;100463.53;;;28.08;24.52
22241;BME280;11289;52.524;13.694;2023-05-10T12:48:20;100451.84;;;27.76;24.51
22241;BME280;11289;52.524;13.694;2023-05-10T12:50:46;100471.09;;;27.59;24.83
22241;BME280;11289;52.524;13.694;2023-05-10T12:53:15;100462.44;;;27.63;24.29
22241;BME280;11289;52.524;13.694;2023-05-10T12:55:42;100460.41;;;27.89;24.93
22241;BME280;11289;52.524;13.694;2023-05-10T12:58:08;100461.25;;;28.03;24.89
22241;BME280;11289;52.524;13.694;2023-05-10T13:00:34;100461.59;;;28.05;23.65
22241;BME280;11289;52.524;13.694;2023-05-10T13:03:00;100459.88;;;28.20;24.04
22241;BME280;11289;52.524;13.694;2023-05-10T13:05:26;100467.97;;;28.22;23.46
22241;BME280;11289;52.524;13.694;2023-05-10T13:07:52;100461.38;;;28.25;23.41
22241;BME280;11289;52.524;13.694;2023-05-10T13:10:18;100459.75;;;28.24;23.22
22241;BME280;11289;52.524;13.694;2023-05-10T13:12:44;100456.00;;;28.27;23.35
22241;BME280;11289;52.524;13.694;2023-05-10T13:15:10;100445.56;;;28.46;23.75